Gulf — V2BB5 — position and weather

sailwx.info

Track history (hours):
 
Tides and Currents Weather Stations Pressure Air Temp Water Temp Dewpoint Dewpoint Depression Visibility Wind Speed Wind Dir Waves Ship Positions

Gulf

Last reported at 2016-Dec-03 01:33 UTC. Time now 2016-Dec-03 02:33 UTC.
Position N 44°41' E 037°49'.

Length 96 m; draft 3.6 m.

Type: Cargo ship. MMSI: 304320000.

Date/timePositionNaut miles runAvg speedWind from/ knotsBaromVisibWave heightAir tempDewpointWater temp
2016-Dec-03 01:33N 44°41' E 037°49'0 0.0
2016-Dec-03 00:33N 44°41' E 037°49'0 0.0
2016-Dec-02 23:33N 44°41' E 037°49'0 0.0
2016-Dec-02 22:33N 44°41' E 037°49'0 0.0
2016-Dec-02 21:33N 44°41' E 037°49'0 0.0
2016-Dec-02 20:33N 44°41' E 037°49'0 0.0
2016-Dec-02 19:34N 44°41' E 037°49'0 0.0
2016-Dec-02 18:29N 44°41' E 037°49'0 0.0
2016-Dec-02 17:34N 44°41' E 037°49'0 0.0
2016-Dec-02 16:34N 44°41' E 037°49'0 0.0
2016-Dec-02 15:34N 44°41' E 037°49'0 0.1
2016-Dec-02 14:34N 44°41' E 037°49'4 3.5
2016-Dec-02 13:33N 44°39' E 037°52'2 1.8
2016-Dec-02 12:31N 44°39' E 037°55'0 0.0
2016-Dec-02 11:31N 44°39' E 037°55'0 0.0
2016-Dec-02 10:31N 44°39' E 037°55'0 0.0
2016-Dec-02 09:31N 44°39' E 037°55'0 0.0
2016-Dec-02 08:31N 44°39' E 037°55'0 0.1
2016-Dec-02 07:31N 44°39' E 037°55'0 0.0
2016-Dec-02 06:33N 44°39' E 037°55'0 0.0
2016-Dec-02 05:33N 44°39' E 037°55'0 0.0
2016-Dec-02 04:33N 44°39' E 037°55'0 0.0
2016-Dec-02 03:33N 44°39' E 037°55'0 0.0
2016-Dec-02 02:33N 44°39' E 037°55'0 0.0
2016-Dec-02 01:33N 44°39' E 037°55'0 0.0
2016-Dec-02 00:33N 44°39' E 037°55'0 0.0
2016-Dec-01 23:33N 44°39' E 037°55'0 0.0
2016-Dec-01 22:33N 44°39' E 037°55'0 0.0
2016-Dec-01 21:33N 44°39' E 037°55'0 0.0
2016-Dec-01 20:33N 44°39' E 037°55'0 0.0
2016-Dec-01 19:33N 44°39' E 037°55'0 0.0
2016-Dec-01 18:33N 44°39' E 037°55'0 0.0
2016-Dec-01 17:33N 44°39' E 037°55'0 0.0
2016-Dec-01 16:33N 44°39' E 037°55'0 0.0
2016-Dec-01 15:33N 44°39' E 037°55'0 0.0
2016-Dec-01 14:33N 44°39' E 037°55'0 0.0
2016-Dec-01 13:33N 44°39' E 037°55'0 0.0
2016-Dec-01 12:33N 44°39' E 037°55'0 0.0
2016-Dec-01 11:33N 44°39' E 037°55'0 0.0
2016-Dec-01 10:33N 44°39' E 037°55'0 0.0
2016-Dec-01 09:33N 44°39' E 037°55'0 0.0
2016-Dec-01 08:33N 44°39' E 037°55'0 0.0
2016-Dec-01 07:33N 44°39' E 037°55'0 0.0
2016-Dec-01 06:33N 44°39' E 037°55'0 0.0
2016-Dec-01 05:33N 44°39' E 037°55'0 0.0
2016-Dec-01 04:33N 44°39' E 037°55'0 0.0
2016-Dec-01 03:33N 44°39' E 037°55'0 0.0
2016-Dec-01 02:34N 44°39' E 037°55'0 0.0
2016-Dec-01 01:33N 44°39' E 037°55'0 0.0
2016-Dec-01 00:33N 44°39' E 037°55'0 0.0
2016-Nov-30 23:33N 44°39' E 037°55'0 0.0
2016-Nov-30 22:33N 44°39' E 037°55'0 0.0
2016-Nov-30 21:33N 44°39' E 037°55'0 0.0
2016-Nov-30 20:33N 44°39' E 037°55'0 0.0
2016-Nov-30 19:34N 44°39' E 037°55'0 0.0
2016-Nov-30 18:33N 44°39' E 037°55'0 0.0
2016-Nov-30 17:33N 44°39' E 037°55'0 0.0
2016-Nov-30 16:34N 44°39' E 037°55'0 0.0
2016-Nov-30 15:33N 44°39' E 037°55'0 0.0
2016-Nov-30 14:33N 44°39' E 037°55'0 0.0
2016-Nov-30 13:34N 44°39' E 037°55'0 0.0
2016-Nov-30 12:34N 44°39' E 037°55'0 0.0
2016-Nov-30 11:33N 44°39' E 037°55'1 0.5
2016-Nov-30 10:33N 44°38' E 037°54'8 8.4
2016-Nov-30 09:33N 44°35' E 037°44'9 8.7
2016-Nov-30 08:33N 44°33' E 037°32'9 8.6
2016-Nov-30 07:31N 44°33' E 037°19'  
2016-Nov-27 23:19N 40°57' E 028°55'16 0.5
2016-Nov-26 18:31N 40°50' E 029°14'0 0.0
2016-Nov-26 17:25N 40°50' E 029°14'0 0.0
2016-Nov-26 16:31N 40°50' E 029°14'0 0.0
2016-Nov-26 15:25N 40°50' E 029°14'  
Track history (hours):
 
Tides and Currents Weather Stations Pressure Air Temp Water Temp Dewpoint Dewpoint Depression Visibility Wind Speed Wind Dir Waves Ship Positions

Gulf

Last reported at 2016-Dec-03 01:33 UTC. Time now 2016-Dec-03 02:33 UTC.
Position N 44°41' E 037°49'.

Length 96 m; draft 3.6 m.

Type: Cargo ship. MMSI: 304320000.

Date/timePositionNaut miles runAvg speedWind from/ knotsBaromVisibWave heightAir tempDewpointWater temp
2016-Dec-03 01:33N 44°41' E 037°49'0 0.0
2016-Dec-03 00:33N 44°41' E 037°49'0 0.0
2016-Dec-02 23:33N 44°41' E 037°49'0 0.0
2016-Dec-02 22:33N 44°41' E 037°49'0 0.0
2016-Dec-02 21:33N 44°41' E 037°49'0 0.0
2016-Dec-02 20:33N 44°41' E 037°49'0 0.0
2016-Dec-02 19:34N 44°41' E 037°49'0 0.0
2016-Dec-02 18:29N 44°41' E 037°49'0 0.0
2016-Dec-02 17:34N 44°41' E 037°49'0 0.0
2016-Dec-02 16:34N 44°41' E 037°49'0 0.0
2016-Dec-02 15:34N 44°41' E 037°49'0 0.1
2016-Dec-02 14:34N 44°41' E 037°49'4 3.5
2016-Dec-02 13:33N 44°39' E 037°52'2 1.8
2016-Dec-02 12:31N 44°39' E 037°55'0 0.0
2016-Dec-02 11:31N 44°39' E 037°55'0 0.0
2016-Dec-02 10:31N 44°39' E 037°55'0 0.0
2016-Dec-02 09:31N 44°39' E 037°55'0 0.0
2016-Dec-02 08:31N 44°39' E 037°55'0 0.1
2016-Dec-02 07:31N 44°39' E 037°55'0 0.0
2016-Dec-02 06:33N 44°39' E 037°55'0 0.0
2016-Dec-02 05:33N 44°39' E 037°55'0 0.0
2016-Dec-02 04:33N 44°39' E 037°55'0 0.0
2016-Dec-02 03:33N 44°39' E 037°55'0 0.0
2016-Dec-02 02:33N 44°39' E 037°55'0 0.0
2016-Dec-02 01:33N 44°39' E 037°55'0 0.0
2016-Dec-02 00:33N 44°39' E 037°55'0 0.0
2016-Dec-01 23:33N 44°39' E 037°55'0 0.0
2016-Dec-01 22:33N 44°39' E 037°55'0 0.0
2016-Dec-01 21:33N 44°39' E 037°55'0 0.0
2016-Dec-01 20:33N 44°39' E 037°55'0 0.0
2016-Dec-01 19:33N 44°39' E 037°55'0 0.0
2016-Dec-01 18:33N 44°39' E 037°55'0 0.0
2016-Dec-01 17:33N 44°39' E 037°55'0 0.0
2016-Dec-01 16:33N 44°39' E 037°55'0 0.0
2016-Dec-01 15:33N 44°39' E 037°55'0 0.0
2016-Dec-01 14:33N 44°39' E 037°55'0 0.0
2016-Dec-01 13:33N 44°39' E 037°55'0 0.0
2016-Dec-01 12:33N 44°39' E 037°55'0 0.0
2016-Dec-01 11:33N 44°39' E 037°55'0 0.0
2016-Dec-01 10:33N 44°39' E 037°55'0 0.0
2016-Dec-01 09:33N 44°39' E 037°55'0 0.0
2016-Dec-01 08:33N 44°39' E 037°55'0 0.0
2016-Dec-01 07:33N 44°39' E 037°55'0 0.0
2016-Dec-01 06:33N 44°39' E 037°55'0 0.0
2016-Dec-01 05:33N 44°39' E 037°55'0 0.0
2016-Dec-01 04:33N 44°39' E 037°55'0 0.0
2016-Dec-01 03:33N 44°39' E 037°55'0 0.0
2016-Dec-01 02:34N 44°39' E 037°55'0 0.0
2016-Dec-01 01:33N 44°39' E 037°55'0 0.0
2016-Dec-01 00:33N 44°39' E 037°55'0 0.0
2016-Nov-30 23:33N 44°39' E 037°55'0 0.0
2016-Nov-30 22:33N 44°39' E 037°55'0 0.0
2016-Nov-30 21:33N 44°39' E 037°55'0 0.0
2016-Nov-30 20:33N 44°39' E 037°55'0 0.0
2016-Nov-30 19:34N 44°39' E 037°55'0 0.0
2016-Nov-30 18:33N 44°39' E 037°55'0 0.0
2016-Nov-30 17:33N 44°39' E 037°55'0 0.0
2016-Nov-30 16:34N 44°39' E 037°55'0 0.0
2016-Nov-30 15:33N 44°39' E 037°55'0 0.0
2016-Nov-30 14:33N 44°39' E 037°55'0 0.0
2016-Nov-30 13:34N 44°39' E 037°55'0 0.0
2016-Nov-30 12:34N 44°39' E 037°55'0 0.0
2016-Nov-30 11:33N 44°39' E 037°55'1 0.5
2016-Nov-30 10:33N 44°38' E 037°54'8 8.4
2016-Nov-30 09:33N 44°35' E 037°44'9 8.7
2016-Nov-30 08:33N 44°33' E 037°32'9 8.6
2016-Nov-30 07:31N 44°33' E 037°19'  
2016-Nov-27 23:19N 40°57' E 028°55'16 0.5
2016-Nov-26 18:31N 40°50' E 029°14'0 0.0
2016-Nov-26 17:25N 40°50' E 029°14'0 0.0
2016-Nov-26 16:31N 40°50' E 029°14'0 0.0
2016-Nov-26 15:25N 40°50' E 029°14'  

Dump ship's entire track history